createdAt,value
2018-07-19T22:02:49.631Z,29.7
2018-07-19T22:03:56.853Z,27.4
2018-07-19T22:05:04.064Z,30
2018-07-19T22:06:11.273Z,30.5
2018-07-19T22:07:18.503Z,31.7
2018-07-19T22:08:25.711Z,30.9
2018-07-19T22:09:32.949Z,28.3
2018-07-19T22:10:40.194Z,29.9
2018-07-19T22:11:47.401Z,28.4
2018-07-19T22:12:54.621Z,30
2018-07-19T22:14:01.828Z,29.9
2018-07-19T22:15:09.073Z,30.1
2018-07-19T22:16:16.288Z,26.8
2018-07-19T22:17:23.495Z,28.2
2018-07-19T22:18:30.708Z,28.7
2018-07-19T22:19:37.643Z,28.2
2018-07-19T22:20:44.852Z,27.1
2018-07-19T22:21:52.089Z,27.1
2018-07-19T22:22:59.305Z,28.1
2018-07-19T22:24:06.521Z,26.3
2018-07-19T22:25:13.730Z,27.4
2018-07-19T22:26:20.755Z,27.1
2018-07-19T22:27:27.891Z,27.1
2018-07-19T22:28:35.104Z,26.5
2018-07-19T22:29:42.314Z,27.5
2018-07-19T22:30:49.530Z,27
2018-07-19T22:31:56.514Z,27.5
2018-07-19T22:33:03.445Z,27.1
2018-07-19T22:34:10.659Z,26.7
2018-07-19T22:35:17.864Z,26.4
2018-07-19T22:36:24.798Z,27
2018-07-19T22:37:32.017Z,27.1
2018-07-19T22:38:39.247Z,27.1
2018-07-19T22:39:46.450Z,26.5
2018-07-19T22:40:53.669Z,26.3
2018-07-19T22:42:00.881Z,27.1
2018-07-19T22:43:08.100Z,26
2018-07-19T22:44:15.307Z,27.1
2018-07-19T22:45:22.269Z,27
2018-07-19T22:46:29.484Z,27
2018-07-19T22:47:36.691Z,26.7
2018-07-19T22:48:43.898Z,27
2018-07-19T22:49:51.137Z,27.5
2018-07-19T22:50:58.079Z,27.1
2018-07-19T22:52:05.287Z,28.5
2018-07-19T22:53:12.497Z,27.7
2018-07-19T22:54:19.708Z,27
2018-07-19T22:55:26.958Z,27.6
2018-07-19T22:56:34.176Z,27.7
2018-07-19T22:57:41.409Z,28.9
2018-07-19T22:58:48.625Z,27.6
2018-07-19T22:59:55.824Z,27.6
2018-07-19T23:01:03.036Z,27.9
2018-07-19T23:02:10.341Z,29.4
2018-07-19T23:03:17.865Z,27.5
2018-07-19T23:04:25.078Z,26.9
2018-07-19T23:05:32.290Z,27.6
2018-07-19T23:06:39.224Z,28.3
2018-07-19T23:07:46.439Z,27.7
2018-07-19T23:08:53.374Z,26.9
2018-07-19T23:10:00.589Z,26.6
2018-07-19T23:11:07.803Z,26.9
2018-07-19T23:12:15.015Z,27
2018-07-19T23:13:21.967Z,25.8
2018-07-19T23:14:28.899Z,27
2018-07-19T23:15:35.843Z,26.8
2018-07-19T23:16:43.051Z,27.3
2018-07-19T23:17:50.265Z,26.1
2018-07-19T23:18:57.478Z,28.1
2018-07-19T23:20:04.687Z,28.6
2018-07-19T23:21:11.901Z,27.9
2018-07-19T23:22:19.111Z,27.2
2018-07-19T23:23:26.321Z,28.4
2018-07-19T23:24:33.574Z,27.5
2018-07-19T23:25:40.783Z,26.9
2018-07-19T23:26:47.995Z,27.9
2018-07-19T23:27:55.209Z,27.5
2018-07-19T23:29:02.412Z,27.8
2018-07-19T23:30:09.625Z,26.9
2018-07-19T23:31:16.840Z,28.3
2018-07-19T23:32:23.777Z,28.4
2018-07-19T23:33:30.986Z,28.4
2018-07-19T23:34:38.194Z,28.2
2018-07-19T23:35:45.405Z,30.5
2018-07-19T23:36:52.613Z,29
2018-07-19T23:37:59.900Z,28.4
2018-07-19T23:39:07.118Z,27.3
2018-07-19T23:40:14.332Z,27.9
2018-07-19T23:41:21.544Z,28.6
2018-07-19T23:42:28.750Z,28.7
2018-07-19T23:43:35.964Z,28.9
2018-07-19T23:44:43.173Z,28.8
2018-07-19T23:45:50.383Z,28.7
2018-07-19T23:46:57.599Z,29.1
2018-07-19T23:48:04.808Z,28.9
2018-07-19T23:49:11.750Z,29.4
2018-07-19T23:50:18.963Z,26.9
2018-07-19T23:51:26.177Z,29.7
2018-07-19T23:52:33.388Z,29.7
2018-07-19T23:53:40.601Z,29.5
2018-07-19T23:54:47.808Z,30.1
2018-07-19T23:55:54.741Z,29.7
2018-07-19T23:57:01.955Z,30.8
2018-07-19T23:58:09.164Z,30.7
2018-07-19T23:59:16.374Z,30.4
